Time;durP1;ratioP1;P1;durP2;ratioP2;P2;SDS_P1;SDS_P2;PMS_P1;PMS_P2;Temp;Humidity;BMP_temperature;BMP_pressure;BME280_temperature;BME280_humidity;BME280_pressure;Samples;Min_cycle;Max_cycle;Signal;HPM_P1;HPM_P2
2023/08/06 00:00:25;;;;;;;5.60;3.80;;;14.60;99.90;;;;;;5069564;28;20271;-66
2023/08/06 00:02:50;;;;;;;5.80;4.33;;;14.50;99.90;;;;;;5069603;28;20207;-66
2023/08/06 00:05:18;;;;;;;5.03;3.97;;;14.60;99.90;;;;;;5069542;28;20503;-66
2023/08/06 00:07:45;;;;;;;4.40;3.50;;;14.50;99.90;;;;;;5069340;28;20714;-66
2023/08/06 00:10:11;;;;;;;3.90;3.50;;;14.50;99.90;;;;;;5069578;28;20478;-66
2023/08/06 00:12:36;;;;;;;4.37;3.97;;;14.50;99.90;;;;;;5069586;28;20433;-66
2023/08/06 00:15:02;;;;;;;6.00;3.40;;;14.60;99.90;;;;;;5069310;28;20492;-66
2023/08/06 00:17:27;;;;;;;4.07;3.57;;;14.50;99.90;;;;;;5069135;28;20279;-66
2023/08/06 00:19:53;;;;;;;7.73;3.43;;;14.50;99.90;;;;;;5069169;28;20278;-66
2023/08/06 00:22:19;;;;;;;4.50;3.47;;;14.50;99.90;;;;;;5069056;28;20686;-66
2023/08/06 00:24:44;;;;;;;6.93;2.93;;;14.30;99.90;;;;;;5069076;28;20226;-66
2023/08/06 00:27:10;;;;;;;3.17;2.97;;;14.50;99.90;;;;;;5068970;28;20207;-66
2023/08/06 00:29:35;;;;;;;5.60;3.03;;;14.40;99.90;;;;;;5068896;28;20241;-66
2023/08/06 00:32:01;;;;;;;5.13;3.90;;;14.40;99.90;;;;;;5068877;28;20573;-66
2023/08/06 00:34:27;;;;;;;3.50;3.20;;;14.40;99.90;;;;;;5068929;28;20215;-65
2023/08/06 00:36:53;;;;;;;3.73;3.33;;;14.30;99.90;;;;;;5069007;28;20193;-66
2023/08/06 00:39:19;;;;;;;5.13;3.60;;;14.30;99.90;;;;;;5069038;28;20209;-66
2023/08/06 00:41:44;;;;;;;6.80;3.83;;;14.30;99.90;;;;;;5069030;28;20477;-66
2023/08/06 00:44:10;;;;;;;4.13;3.63;;;14.20;99.90;;;;;;5068738;28;20194;-66
2023/08/06 00:46:36;;;;;;;7.40;3.00;;;14.20;99.90;;;;;;5068674;28;20738;-66
2023/08/06 00:49:01;;;;;;;5.43;2.90;;;14.20;99.90;;;;;;5068673;28;20278;-66
2023/08/06 00:51:27;;;;;;;3.60;3.00;;;14.20;99.90;;;;;;5068608;28;20241;-66
2023/08/06 00:53:54;;;;;;;4.20;2.90;;;14.20;99.90;;;;;;5050406;28;20426;-66
2023/08/06 00:56:20;;;;;;;5.33;2.73;;;14.20;99.90;;;;;;5068578;28;20268;-66
2023/08/06 00:58:46;;;;;;;3.33;3.00;;;14.30;99.90;;;;;;5050153;28;20460;-66
2023/08/06 01:01:12;;;;;;;3.30;2.97;;;14.40;99.90;;;;;;5068436;28;20207;-67
2023/08/06 01:03:38;;;;;;;2.80;2.50;;;14.50;99.90;;;;;;5068414;28;20813;-66
2023/08/06 01:06:05;;;;;;;3.90;3.10;;;14.60;99.90;;;;;;5068508;28;20198;-66
2023/08/06 01:09:09;;;;;;;4.40;2.77;;;14.70;99.90;;;;;;5068369;28;20947;-66
2023/08/06 01:11:44;;;;;;;3.23;2.93;;;14.60;99.90;;;;;;5067980;28;20976;-66
2023/08/06 01:14:28;;;;;;;3.47;3.17;;;14.60;99.90;;;;;;5068323;28;20477;-66
2023/08/06 01:16:54;;;;;;;3.40;3.00;;;14.50;99.90;;;;;;5068103;28;20861;-66
2023/08/06 01:19:21;;;;;;;3.77;3.00;;;14.50;99.90;;;;;;5068346;28;20551;-65
2023/08/06 01:21:47;;;;;;;2.60;2.40;;;14.40;99.90;;;;;;5068326;28;21051;-65
2023/08/06 01:24:13;;;;;;;3.13;2.83;;;14.30;99.90;;;;;;5068268;28;20414;-65
2023/08/06 01:26:53;;;;;;;3.43;3.13;;;14.40;99.90;;;;;;5068004;28;20206;-66
2023/08/06 01:29:28;;;;;;;7.70;2.40;;;14.40;99.90;;;;;;5068177;28;20805;-66
2023/08/06 01:31:55;;;;;;;2.53;2.03;;;14.40;99.90;;;;;;5068306;28;20477;-66
2023/08/06 01:34:23;;;;;;;2.73;2.53;;;14.40;99.90;;;;;;5068437;28;20466;-66
2023/08/06 01:36:50;;;;;;;2.90;2.70;;;14.50;99.90;;;;;;5068104;28;20470;-66
2023/08/06 01:39:15;;;;;;;5.87;2.47;;;14.50;99.90;;;;;;5068091;28;20457;-66
2023/08/06 01:41:41;;;;;;;3.93;1.90;;;14.50;99.90;;;;;;5049895;28;20489;-66
2023/08/06 01:44:06;;;;;;;3.53;2.23;;;14.40;99.90;;;;;;5068070;28;20291;-66
2023/08/06 01:46:32;;;;;;;2.37;2.10;;;14.50;99.90;;;;;;5068007;28;20188;-66
2023/08/06 01:48:57;;;;;;;3.13;1.97;;;14.50;99.90;;;;;;5068129;28;20205;-66
2023/08/06 01:51:23;;;;;;;3.40;1.97;;;14.40;99.90;;;;;;5067988;28;20208;-66
2023/08/06 01:53:49;;;;;;;2.47;2.20;;;14.50;99.90;;;;;;5068076;28;20194;-66
2023/08/06 01:56:14;;;;;;;4.40;2.27;;;14.50;99.90;;;;;;5067907;28;20679;-66
2023/08/06 01:58:40;;;;;;;4.87;1.80;;;14.60;99.90;;;;;;5068022;28;20193;-66
2023/08/06 02:01:05;;;;;;;3.73;2.70;;;14.60;99.90;;;;;;5067786;28;20213;-66
2023/08/06 02:03:31;;;;;;;3.83;2.27;;;14.60;99.90;;;;;;5067896;28;20214;-66
2023/08/06 02:05:57;;;;;;;3.70;2.03;;;14.40;99.90;;;;;;5067889;28;20278;-66
2023/08/06 02:08:23;;;;;;;4.77;2.10;;;14.30;99.90;;;;;;5068262;28;20280;-66
2023/08/06 02:10:49;;;;;;;2.57;2.10;;;14.20;99.90;;;;;;5071141;28;20445;-66
2023/08/06 02:13:14;;;;;;;19.93;2.70;;;14.20;99.90;;;;;;5072119;28;20176;-66
2023/08/06 02:15:44;;;;;;;8.60;2.80;;;14.20;99.90;;;;;;5071970;28;20455;-66
2023/08/06 02:18:10;;;;;;;3.00;2.43;;;14.00;99.90;;;;;;5071992;28;20179;-66
2023/08/06 02:20:35;;;;;;;3.90;2.23;;;14.00;99.90;;;;;;5072309;28;20947;-66
2023/08/06 02:23:01;;;;;;;3.47;2.37;;;13.90;99.90;;;;;;5072061;28;20190;-65
2023/08/06 02:25:27;;;;;;;3.83;1.90;;;13.90;99.90;;;;;;5072210;28;20187;-66
2023/08/06 02:27:52;;;;;;;5.57;2.47;;;13.70;99.90;;;;;;5072274;28;20716;-65
2023/08/06 02:30:18;;;;;;;4.50;1.97;;;13.70;99.90;;;;;;5072065;28;20231;-66
2023/08/06 02:32:44;;;;;;;4.83;1.87;;;13.80;99.90;;;;;;5072318;28;20610;-65
2023/08/06 02:35:09;;;;;;;8.40;1.90;;;13.80;99.90;;;;;;5072554;28;20422;-65
2023/08/06 02:37:35;;;;;;;4.00;2.13;;;13.90;99.90;;;;;;5072307;28;20201;-66
2023/08/06 02:40:01;;;;;;;2.00;1.80;;;13.90;99.90;;;;;;5072297;28;20183;-65
2023/08/06 02:42:26;;;;;;;2.30;1.60;;;14.00;99.90;;;;;;5072023;28;20215;-65
2023/08/06 02:44:54;;;;;;;3.03;1.77;;;14.00;99.90;;;;;;5054184;28;20278;-65
2023/08/06 02:47:20;;;;;;;3.10;1.50;;;14.10;99.90;;;;;;5072072;28;20199;-65
2023/08/06 02:49:46;;;;;;;3.40;1.80;;;14.00;99.90;;;;;;5071897;28;20424;-66
2023/08/06 02:52:12;;;;;;;3.83;1.73;;;14.00;99.90;;;;;;5072055;28;20540;-66
2023/08/06 02:54:37;;;;;;;4.47;1.93;;;14.00;99.90;;;;;;5071772;28;20187;-66
2023/08/06 02:57:03;;;;;;;3.10;2.03;;;14.10;99.90;;;;;;5071604;28;20184;-66
2023/08/06 02:59:29;;;;;;;1.70;1.53;;;14.00;99.90;;;;;;5071380;28;20317;-66
2023/08/06 03:01:54;;;;;;;2.80;1.60;;;14.00;99.90;;;;;;5071121;28;20206;-66
2023/08/06 03:04:20;;;;;;;3.70;1.50;;;14.10;99.90;;;;;;5071190;28;20666;-66
2023/08/06 03:06:45;;;;;;;4.13;1.77;;;14.20;99.90;;;;;;5071113;28;20764;-66
2023/08/06 03:09:11;;;;;;;4.13;1.70;;;14.30;99.90;;;;;;5070993;28;20187;-66
2023/08/06 03:11:36;;;;;;;2.00;1.37;;;14.30;99.90;;;;;;5070830;28;20215;-66
2023/08/06 03:14:02;;;;;;;3.83;1.60;;;14.20;99.90;;;;;;5070901;28;20194;-66
2023/08/06 03:16:27;;;;;;;3.50;1.33;;;14.30;99.90;;;;;;5070801;28;20970;-66
2023/08/06 03:18:53;;;;;;;1.67;1.57;;;14.30;99.90;;;;;;5071040;28;20183;-67
2023/08/06 03:21:18;;;;;;;3.53;1.40;;;14.40;99.90;;;;;;5052442;28;20225;-67
2023/08/06 03:23:47;;;;;;;5.00;1.83;;;14.40;99.90;;;;;;5070694;28;20186;-67
2023/08/06 03:26:13;;;;;;;3.80;1.93;;;14.40;99.90;;;;;;5070592;28;20183;-67
2023/08/06 03:28:38;;;;;;;3.10;1.53;;;14.50;99.90;;;;;;5070583;28;20579;-66
2023/08/06 03:31:04;;;;;;;4.27;1.97;;;14.50;99.90;;;;;;5052226;28;20234;-67
2023/08/06 03:33:30;;;;;;;3.03;1.30;;;14.50;99.90;;;;;;5070400;28;20217;-67
2023/08/06 03:35:56;;;;;;;3.10;2.10;;;14.60;99.90;;;;;;5070508;28;20405;-66
2023/08/06 03:38:22;;;;;;;1.90;1.40;;;14.60;99.90;;;;;;5070527;28;20422;-67
2023/08/06 03:40:48;;;;;;;2.33;1.57;;;14.70;99.90;;;;;;5070370;28;20437;-67
2023/08/06 03:43:14;;;;;;;3.63;1.67;;;14.70;99.90;;;;;;5070624;28;20410;-66
2023/08/06 03:45:40;;;;;;;1.63;1.40;;;14.70;99.90;;;;;;5052534;28;20203;-66
2023/08/06 03:48:06;;;;;;;6.80;1.73;;;14.80;99.90;;;;;;5070625;28;20203;-66
2023/08/06 03:50:32;;;;;;;8.83;2.20;;;14.80;99.90;;;;;;5070474;28;20409;-66
2023/08/06 03:52:57;;;;;;;2.20;1.40;;;14.80;99.90;;;;;;5070671;28;20179;-66
2023/08/06 03:55:23;;;;;;;2.20;1.67;;;14.80;99.90;;;;;;5070781;28;20258;-66
2023/08/06 03:57:48;;;;;;;2.97;1.57;;;14.80;99.90;;;;;;5070857;28;20659;-66
2023/08/06 04:00:14;;;;;;;2.70;1.20;;;14.90;99.90;;;;;;5070759;28;20557;-67
2023/08/06 04:02:39;;;;;;;2.80;1.40;;;14.90;99.90;;;;;;5070665;28;20560;-66
2023/08/06 04:05:05;;;;;;;1.43;1.20;;;14.90;99.90;;;;;;5070585;28;20686;-66
2023/08/06 04:07:31;;;;;;;4.30;1.57;;;14.90;99.90;;;;;;5052489;28;20234;-66
2023/08/06 04:10:04;;;;;;;5.00;1.43;;;14.80;99.90;;;;;;5070506;28;20557;-66
2023/08/06 04:12:31;;;;;;;4.97;1.97;;;14.90;99.90;;;;;;5069937;28;20248;-66
2023/08/06 04:15:01;;;;;;;3.00;1.60;;;14.90;99.90;;;;;;5069894;28;20410;-66
2023/08/06 04:17:26;;;;;;;3.50;1.40;;;14.90;99.90;;;;;;5069753;28;20421;-66
2023/08/06 04:19:54;;;;;;;4.60;1.47;;;15.00;99.90;;;;;;5069581;28;20472;-66
2023/08/06 04:22:20;;;;;;;7.13;1.40;;;15.00;99.90;;;;;;5069454;28;20211;-67
2023/08/06 04:24:46;;;;;;;6.20;1.20;;;15.00;99.90;;;;;;5069527;28;20479;-66
2023/08/06 04:27:13;;;;;;;1.10;0.83;;;14.90;99.90;;;;;;5069465;28;20461;-67
2023/08/06 04:29:38;;;;;;;3.30;1.03;;;14.90;99.90;;;;;;5069101;28;20192;-67
2023/08/06 04:32:06;;;;;;;2.13;1.10;;;14.80;99.90;;;;;;5068653;28;20850;-66
2023/08/06 04:34:32;;;;;;;4.63;0.83;;;14.70;99.90;;;;;;5069149;28;20415;-66
2023/08/06 04:36:58;;;;;;;2.17;1.03;;;14.60;99.90;;;;;;5069306;28;20828;-66
2023/08/06 04:39:23;;;;;;;4.00;0.83;;;14.60;99.90;;;;;;5069162;28;20183;-66
2023/08/06 04:41:49;;;;;;;1.87;0.90;;;14.60;99.90;;;;;;5050941;28;20453;-66
2023/08/06 04:44:15;;;;;;;3.87;1.13;;;14.60;99.90;;;;;;5069006;28;20210;-66
2023/08/06 04:46:40;;;;;;;3.57;0.90;;;14.60;99.90;;;;;;5068850;28;20194;-66
2023/08/06 04:49:06;;;;;;;3.53;1.00;;;14.60;99.90;;;;;;5068747;28;20206;-66
2023/08/06 04:51:31;;;;;;;2.20;0.90;;;14.60;99.90;;;;;;5068873;28;20199;-66
2023/08/06 04:53:57;;;;;;;3.13;1.03;;;14.60;99.90;;;;;;5068944;28;20208;-66
2023/08/06 04:56:23;;;;;;;2.60;1.10;;;14.60;99.90;;;;;;5068866;28;20187;-66
2023/08/06 04:58:48;;;;;;;3.17;1.10;;;14.60;99.90;;;;;;5069064;28;20179;-66
2023/08/06 05:01:14;;;;;;;2.50;1.00;;;14.50;99.90;;;;;;5068812;28;20710;-66
2023/08/06 05:03:40;;;;;;;7.03;1.10;;;14.60;99.90;;;;;;5050791;28;20175;-66
2023/08/06 05:06:05;;;;;;;2.80;0.83;;;14.50;99.90;;;;;;5068691;28;20183;-67
2023/08/06 05:08:31;;;;;;;2.50;1.00;;;14.50;99.90;;;;;;5068687;28;20627;-67
2023/08/06 05:10:56;;;;;;;4.70;1.53;;;14.50;99.90;;;;;;5068608;28;20223;-66
2023/08/06 05:13:22;;;;;;;2.43;0.97;;;14.50;99.90;;;;;;5068836;28;20191;-67
2023/08/06 05:15:47;;;;;;;4.30;1.00;;;14.50;99.90;;;;;;5068763;28;20848;-67
2023/08/06 05:18:13;;;;;;;2.03;0.80;;;14.50;99.90;;;;;;5068778;28;20321;-66
2023/08/06 05:20:40;;;;;;;1.73;0.90;;;14.40;99.90;;;;;;5068522;28;20211;-67
2023/08/06 05:23:06;;;;;;;2.77;0.90;;;14.40;99.90;;;;;;5068736;28;20242;-66
2023/08/06 05:25:31;;;;;;;1.60;0.80;;;14.40;99.90;;;;;;5068654;28;21357;-66
2023/08/06 05:27:57;;;;;;;1.90;0.73;;;14.50;99.90;;;;;;5068541;28;20216;-66
2023/08/06 05:30:22;;;;;;;3.77;0.93;;;14.40;99.90;;;;;;5068309;28;20749;-66
2023/08/06 05:32:48;;;;;;;1.80;0.83;;;14.40;99.90;;;;;;5068978;28;20286;-66
2023/08/06 05:35:13;;;;;;;3.47;1.00;;;14.50;99.90;;;;;;5068447;28;20186;-66
2023/08/06 05:37:39;;;;;;;1.93;0.90;;;14.50;99.90;;;;;;5068623;28;20186;-66
2023/08/06 05:40:05;;;;;;;2.93;0.90;;;14.60;99.90;;;;;;5068477;28;20258;-66
2023/08/06 05:42:31;;;;;;;1.30;0.70;;;14.60;99.90;;;;;;5068213;28;20721;-66
2023/08/06 05:44:56;;;;;;;3.47;0.73;;;14.60;99.90;;;;;;5070578;28;20418;-66
2023/08/06 05:47:22;;;;;;;1.87;0.80;;;14.70;99.90;;;;;;5072240;28;20229;-66
2023/08/06 05:49:47;;;;;;;1.60;0.70;;;14.80;99.90;;;;;;5072281;28;20217;-66
2023/08/06 05:52:13;;;;;;;1.73;0.83;;;14.90;99.90;;;;;;5072184;28;20210;-66
2023/08/06 05:54:40;;;;;;;2.60;0.73;;;15.00;99.90;;;;;;5072370;28;20184;-66
2023/08/06 05:57:06;;;;;;;1.93;1.00;;;15.20;99.90;;;;;;5071362;28;20320;-66
2023/08/06 05:59:31;;;;;;;1.30;0.80;;;15.20;99.90;;;;;;5072152;28;20531;-66
2023/08/06 06:01:57;;;;;;;1.43;0.70;;;15.30;99.90;;;;;;5072002;28;20210;-65
2023/08/06 06:04:22;;;;;;;1.10;0.77;;;15.20;99.90;;;;;;5071891;28;20561;-66
2023/08/06 06:06:48;;;;;;;1.57;0.70;;;15.20;99.90;;;;;;5071779;28;20207;-66
2023/08/06 06:09:14;;;;;;;6.50;0.60;;;15.20;99.90;;;;;;5071988;28;20692;-66
2023/08/06 06:11:39;;;;;;;2.87;0.77;;;15.10;99.90;;;;;;5071671;28;20514;-66
2023/08/06 06:14:05;;;;;;;1.00;0.60;;;15.10;99.90;;;;;;5071798;28;20555;-66
2023/08/06 06:16:30;;;;;;;1.13;0.60;;;15.00;99.90;;;;;;5071599;28;20283;-66
2023/08/06 06:18:57;;;;;;;1.57;0.60;;;15.00;99.90;;;;;;5071658;28;20189;-66
2023/08/06 06:21:23;;;;;;;2.00;0.63;;;15.00;99.90;;;;;;5071501;28;20192;-66
2023/08/06 06:23:51;;;;;;;1.50;0.70;;;15.00;99.90;;;;;;5071741;28;20413;-66
2023/08/06 06:26:17;;;;;;;3.47;0.80;;;15.00;99.90;;;;;;5071568;28;20761;-66
2023/08/06 06:28:42;;;;;;;1.83;0.70;;;15.00;99.90;;;;;;5071374;28;21091;-66
2023/08/06 06:31:09;;;;;;;0.90;0.60;;;15.00;99.90;;;;;;5053291;28;20552;-66
2023/08/06 06:33:34;;;;;;;1.23;0.60;;;15.00;99.90;;;;;;5071172;28;20232;-67
2023/08/06 06:36:00;;;;;;;0.87;0.50;;;15.00;99.90;;;;;;5071449;28;20421;-66
2023/08/06 06:38:26;;;;;;;0.90;0.50;;;14.90;99.90;;;;;;5071318;28;20258;-66
2023/08/06 06:40:55;;;;;;;1.70;0.50;;;14.90;99.90;;;;;;5071116;28;20628;-66
2023/08/06 06:43:21;;;;;;;1.67;0.50;;;14.90;99.90;;;;;;5071451;28;20191;-66
2023/08/06 06:45:47;;;;;;;1.97;0.60;;;14.90;99.90;;;;;;5071089;28;20422;-66
2023/08/06 06:48:12;;;;;;;3.90;0.50;;;14.90;99.90;;;;;;5070993;28;20469;-66
2023/08/06 06:50:39;;;;;;;0.90;0.50;;;14.90;99.90;;;;;;5070963;28;20195;-66
2023/08/06 06:53:04;;;;;;;0.90;0.50;;;15.00;99.90;;;;;;5071194;28;20187;-66
2023/08/06 06:55:30;;;;;;;1.73;0.57;;;14.90;99.90;;;;;;5070651;28;20414;-66
2023/08/06 06:57:56;;;;;;;3.20;0.50;;;14.90;99.90;;;;;;5071386;28;20547;-67
2023/08/06 07:00:21;;;;;;;2.40;0.70;;;14.90;99.90;;;;;;5053121;28;20206;-66
2023/08/06 07:02:47;;;;;;;3.80;0.63;;;14.90;99.90;;;;;;5052821;28;20240;-66
2023/08/06 07:05:12;;;;;;;1.60;0.60;;;14.90;99.90;;;;;;5071115;28;20960;-66
2023/08/06 07:07:38;;;;;;;6.57;0.80;;;14.90;99.90;;;;;;5070980;28;20639;-65
2023/08/06 07:10:07;;;;;;;4.50;0.80;;;15.00;99.90;;;;;;5071093;28;20192;-66
2023/08/06 07:12:33;;;;;;;1.10;0.70;;;15.00;99.90;;;;;;5070968;28;20203;-66
2023/08/06 07:14:59;;;;;;;1.87;0.53;;;14.90;99.90;;;;;;5071003;28;20456;-66
2023/08/06 07:17:24;;;;;;;2.83;0.77;;;14.70;99.90;;;;;;5070844;28;20794;-65
2023/08/06 07:19:50;;;;;;;3.23;0.60;;;14.70;99.90;;;;;;5070882;28;20185;-66
2023/08/06 07:22:15;;;;;;;2.20;0.70;;;14.90;99.90;;;;;;5070888;28;20242;-66
2023/08/06 07:24:41;;;;;;;2.13;0.50;;;14.90;99.90;;;;;;5070901;28;20188;-67
2023/08/06 07:27:07;;;;;;;1.30;0.57;;;15.00;99.90;;;;;;5052610;28;20638;-67
2023/08/06 07:29:32;;;;;;;0.80;0.40;;;15.00;99.90;;;;;;5070895;28;20183;-67
2023/08/06 07:31:58;;;;;;;1.00;0.50;;;15.10;99.90;;;;;;5071129;28;20207;-65
2023/08/06 07:34:23;;;;;;;1.37;0.60;;;15.10;99.90;;;;;;5071395;28;20268;-66
2023/08/06 07:36:49;;;;;;;2.77;0.70;;;15.20;99.90;;;;;;5071369;28;20178;-66
2023/08/06 07:39:16;;;;;;;1.23;0.50;;;15.20;99.90;;;;;;5071221;28;20556;-65
2023/08/06 07:41:42;;;;;;;0.80;0.50;;;15.20;99.90;;;;;;5071150;28;20949;-66
2023/08/06 07:44:07;;;;;;;1.67;0.43;;;15.00;99.90;;;;;;5071156;28;20418;-65
2023/08/06 07:46:33;;;;;;;0.80;0.47;;;15.00;99.90;;;;;;5052968;28;20197;-65
2023/08/06 07:48:59;;;;;;;1.43;0.57;;;15.00;99.90;;;;;;5071081;28;20227;-67
2023/08/06 07:51:27;;;;;;;0.80;0.50;;;15.10;99.90;;;;;;5070911;28;20643;-65
2023/08/06 07:53:53;;;;;;;1.10;0.40;;;14.90;99.90;;;;;;5070881;28;20264;-66
2023/08/06 07:56:18;;;;;;;0.73;0.40;;;14.80;99.90;;;;;;5070711;28;20444;-66
2023/08/06 07:58:44;;;;;;;1.87;0.60;;;14.70;99.90;;;;;;5070348;28;20214;-66
2023/08/06 08:01:09;;;;;;;0.80;0.40;;;14.70;99.90;;;;;;5070204;28;20698;-66
2023/08/06 08:03:35;;;;;;;1.10;0.40;;;14.80;99.90;;;;;;5070208;28;20214;-66
2023/08/06 08:06:01;;;;;;;1.30;0.50;;;14.70;99.90;;;;;;5070021;28;20193;-64
2023/08/06 08:08:26;;;;;;;1.13;0.60;;;14.70;99.90;;;;;;5069247;28;20254;-65
2023/08/06 08:10:52;;;;;;;2.30;0.40;;;14.80;99.90;;;;;;5070023;28;20206;-65
2023/08/06 08:13:18;;;;;;;0.70;0.40;;;14.80;99.90;;;;;;5069874;28;20175;-65
2023/08/06 08:15:43;;;;;;;0.80;0.50;;;14.90;99.90;;;;;;5069683;28;20904;-65
2023/08/06 08:18:09;;;;;;;1.00;0.50;;;14.90;99.90;;;;;;5069896;28;20188;-66
2023/08/06 08:20:35;;;;;;;0.80;0.43;;;14.90;99.90;;;;;;5069557;28;20203;-66
2023/08/06 08:23:01;;;;;;;0.70;0.33;;;14.80;99.90;;;;;;5069592;28;20541;-66
2023/08/06 08:25:27;;;;;;;1.00;0.40;;;14.90;99.90;;;;;;5069610;28;20422;-66
2023/08/06 08:27:54;;;;;;;1.90;0.50;;;14.90;99.90;;;;;;5069331;28;20224;-66
2023/08/06 08:30:20;;;;;;;0.93;0.50;;;15.00;99.90;;;;;;5069347;28;20435;-65
2023/08/06 08:32:46;;;;;;;1.53;0.40;;;15.10;99.90;;;;;;5069554;28;20922;-66
2023/08/06 08:35:12;;;;;;;0.80;0.40;;;15.10;99.90;;;;;;5069366;28;20938;-66
2023/08/06 08:37:39;;;;;;;0.97;0.40;;;15.10;99.90;;;;;;5069618;28;20413;-65
2023/08/06 08:40:06;;;;;;;0.90;0.40;;;15.10;99.90;;;;;;5069598;28;20569;-66
2023/08/06 08:42:32;;;;;;;1.07;0.30;;;15.10;99.90;;;;;;5069582;28;20438;-66
2023/08/06 08:44:57;;;;;;;0.80;0.40;;;15.10;99.90;;;;;;5069678;28;20783;-66
2023/08/06 08:47:24;;;;;;;0.90;0.40;;;15.00;99.90;;;;;;5069717;28;20681;-66
2023/08/06 08:49:54;;;;;;;0.90;0.37;;;14.90;99.90;;;;;;5069855;28;20222;-66
2023/08/06 08:52:21;;;;;;;0.80;0.40;;;15.00;99.90;;;;;;5070035;28;20798;-65
2023/08/06 08:54:51;;;;;;;0.80;0.40;;;14.90;99.90;;;;;;5069365;28;20449;-65
2023/08/06 08:57:21;;;;;;;0.90;0.57;;;15.00;99.90;;;;;;5069646;28;20969;-65
2023/08/06 08:59:46;;;;;;;5.27;0.60;;;15.10;99.90;;;;;;5069473;28;20448;-65
2023/08/06 09:02:14;;;;;;;2.40;0.50;;;15.10;99.90;;;;;;5069665;28;20441;-64
2023/08/06 09:04:42;;;;;;;0.80;0.40;;;15.00;99.90;;;;;;5069649;28;20214;-65
2023/08/06 09:07:09;;;;;;;0.77;0.40;;;14.90;99.90;;;;;;5069551;28;20472;-65
2023/08/06 09:09:37;;;;;;;1.37;0.50;;;14.90;99.90;;;;;;5069555;28;20415;-65
2023/08/06 09:12:19;;;;;;;0.70;0.40;;;14.90;99.90;;;;;;5069566;28;20439;-65
2023/08/06 09:14:44;;;;;;;0.70;0.30;;;14.90;99.90;;;;;;5069521;28;20414;-65
2023/08/06 09:17:10;;;;;;;1.20;0.47;;;14.80;99.90;;;;;;5069371;28;20416;-65
2023/08/06 09:19:37;;;;;;;2.83;0.40;;;14.90;99.90;;;;;;5069118;28;20209;-65
2023/08/06 09:22:02;;;;;;;3.10;0.60;;;14.80;99.90;;;;;;5069166;28;20447;-65
2023/08/06 09:24:28;;;;;;;0.80;0.40;;;14.80;99.90;;;;;;5069402;28;20433;-65
2023/08/06 09:26:54;;;;;;;1.73;0.50;;;14.80;99.90;;;;;;5069250;28;20461;-65
2023/08/06 09:29:20;;;;;;;0.70;0.40;;;14.90;99.90;;;;;;5069223;28;20250;-65
2023/08/06 09:31:52;;;;;;;1.30;0.43;;;14.90;99.90;;;;;;5069421;28;20534;-64
2023/08/06 09:34:20;;;;;;;0.70;0.40;;;14.70;99.90;;;;;;5069317;28;20418;-65
2023/08/06 09:36:53;;;;;;;1.53;0.40;;;14.80;99.90;;;;;;5069425;28;20413;-65
2023/08/06 09:39:27;;;;;;;3.33;0.40;;;14.90;99.90;;;;;;5069475;28;20487;-65
2023/08/06 09:41:59;;;;;;;0.80;0.30;;;15.00;99.90;;;;;;5068992;28;20942;-65
2023/08/06 09:44:27;;;;;;;0.70;0.30;;;14.90;99.90;;;;;;5069095;28;20488;-65
2023/08/06 09:47:01;;;;;;;0.70;0.40;;;15.00;99.90;;;;;;5068827;28;20406;-65
2023/08/06 09:49:32;;;;;;;0.70;0.30;;;15.00;99.90;;;;;;5068967;28;20401;-65
2023/08/06 09:51:59;;;;;;;0.80;0.40;;;15.10;99.90;;;;;;5068240;28;20427;-65
2023/08/06 09:54:26;;;;;;;0.70;0.40;;;15.20;99.90;;;;;;5068172;28;20420;-65
2023/08/06 09:56:53;;;;;;;2.37;0.40;;;15.20;99.90;;;;;;5068058;28;20422;-65
2023/08/06 09:59:19;;;;;;;0.70;0.30;;;15.10;99.90;;;;;;5068501;28;20414;-65
2023/08/06 10:01:46;;;;;;;1.33;0.40;;;15.10;99.90;;;;;;5067991;28;20434;-65
2023/08/06 10:04:16;;;;;;;1.67;0.30;;;15.10;99.90;;;;;;5068042;28;20413;-65
2023/08/06 10:06:42;;;;;;;0.70;0.30;;;15.10;99.90;;;;;;5067916;28;20859;-65
2023/08/06 10:09:09;;;;;;;0.70;0.30;;;15.10;99.90;;;;;;5049923;28;20460;-65
2023/08/06 10:11:37;;;;;;;1.30;0.50;;;15.00;99.90;;;;;;5067823;28;20438;-65
2023/08/06 10:14:30;;;;;;;0.70;0.30;;;15.00;99.90;;;;;;5049928;28;20423;-65
2023/08/06 10:16:58;;;;;;;0.80;0.40;;;15.00;99.90;;;;;;5067859;28;20410;-65
2023/08/06 10:19:25;;;;;;;0.70;0.40;;;15.00;99.90;;;;;;5067751;28;20425;-66
2023/08/06 10:22:13;;;;;;;0.70;0.37;;;14.90;99.90;;;;;;5067710;28;20441;-65
2023/08/06 10:25:05;;;;;;;0.70;0.30;;;14.80;99.90;;;;;;5067744;28;20410;-65
2023/08/06 10:27:40;;;;;;;0.70;0.40;;;14.60;99.90;;;;;;5063000;28;20482;-65
2023/08/06 10:30:32;;;;;;;0.80;0.40;;;14.50;99.90;;;;;;5068233;28;20531;-65
2023/08/06 10:33:01;;;;;;;0.80;0.40;;;14.40;99.90;;;;;;5071398;28;20405;-65
2023/08/06 10:35:53;;;;;;;0.70;0.30;;;14.40;99.90;;;;;;5071419;28;20410;-65
2023/08/06 10:38:26;;;;;;;0.80;0.40;;;14.50;99.90;;;;;;5071271;28;20445;-65
2023/08/06 10:40:54;;;;;;;1.10;0.40;;;14.50;99.90;;;;;;5071172;28;20473;-65
2023/08/06 10:43:39;;;;;;;0.70;0.30;;;14.50;99.90;;;;;;5071192;28;20411;-65
2023/08/06 10:46:28;;;;;;;0.80;0.40;;;14.60;99.90;;;;;;5071108;28;20951;-65
2023/08/06 10:48:53;;;;;;;0.70;0.40;;;14.60;99.90;;;;;;5055396;28;20480;-65
2023/08/06 10:51:19;;;;;;;1.93;0.40;;;14.70;99.90;;;;;;5070940;28;20942;-65
2023/08/06 10:53:47;;;;;;;1.33;0.40;;;14.70;99.90;;;;;;5070978;28;20191;-65
2023/08/06 10:56:22;;;;;;;1.63;0.40;;;14.70;99.90;;;;;;5071098;28;20178;-65
2023/08/06 10:58:49;;;;;;;0.70;0.40;;;14.70;99.90;;;;;;5070954;28;20414;-65
2023/08/06 11:01:15;;;;;;;1.47;0.40;;;14.70;99.90;;;;;;5070713;28;20454;-65
2023/08/06 11:03:42;;;;;;;0.70;0.30;;;14.70;99.90;;;;;;5071063;28;20836;-65
2023/08/06 11:06:08;;;;;;;1.20;0.40;;;14.70;99.90;;;;;;5070756;28;20406;-65
2023/08/06 11:08:36;;;;;;;1.00;0.40;;;14.60;99.90;;;;;;5070708;28;20998;-65
2023/08/06 11:11:11;;;;;;;0.90;0.30;;;14.60;99.90;;;;;;5070643;28;20438;-65
2023/08/06 11:13:38;;;;;;;0.80;0.40;;;14.60;99.90;;;;;;5071058;28;20421;-65
2023/08/06 11:16:04;;;;;;;0.70;0.30;;;14.70;99.90;;;;;;5070633;28;20424;-65
2023/08/06 11:18:31;;;;;;;0.80;0.40;;;14.60;99.90;;;;;;5070609;28;20421;-64
2023/08/06 11:20:59;;;;;;;0.70;0.40;;;14.60;99.90;;;;;;5070415;28;20965;-65
2023/08/06 11:23:29;;;;;;;1.90;0.40;;;14.60;99.90;;;;;;5070292;28;20962;-65
2023/08/06 11:25:56;;;;;;;0.90;0.40;;;14.50;99.90;;;;;;5070392;28;20512;-65
2023/08/06 11:28:22;;;;;;;1.00;0.40;;;14.50;99.90;;;;;;5070278;28;20479;-65
2023/08/06 11:30:48;;;;;;;0.70;0.40;;;14.50;99.90;;;;;;5070126;28;20454;-65
2023/08/06 11:33:14;;;;;;;0.80;0.40;;;14.60;99.90;;;;;;5070280;28;20829;-65
2023/08/06 11:35:40;;;;;;;0.80;0.40;;;14.60;99.90;;;;;;5070182;28;20853;-65
2023/08/06 11:38:06;;;;;;;0.80;0.40;;;14.50;99.90;;;;;;5070179;28;20183;-65
2023/08/06 11:40:33;;;;;;;0.70;0.30;;;14.60;99.90;;;;;;5070125;28;20414;-65
2023/08/06 11:42:58;;;;;;;2.00;0.40;;;14.60;99.90;;;;;;5070054;28;20509;-65
2023/08/06 11:45:24;;;;;;;0.70;0.40;;;14.70;99.90;;;;;;5070135;28;20508;-65
2023/08/06 11:47:54;;;;;;;0.70;0.40;;;14.60;99.90;;;;;;5051953;28;20604;-66
2023/08/06 11:50:27;;;;;;;0.80;0.40;;;14.70;99.90;;;;;;5069940;28;20418;-65
2023/08/06 11:53:00;;;;;;;0.70;0.40;;;14.70;99.90;;;;;;5070278;28;20455;-66
2023/08/06 11:55:28;;;;;;;0.87;0.40;;;14.80;99.90;;;;;;5069892;28;20514;-65
2023/08/06 11:57:54;;;;;;;0.80;0.40;;;14.90;99.90;;;;;;5069776;28;20770;-65
2023/08/06 12:00:22;;;;;;;0.70;0.40;;;14.70;99.90;;;;;;5069649;28;20422;-65
2023/08/06 12:02:49;;;;;;;1.97;0.50;;;14.80;99.90;;;;;;5069804;28;20452;-65
2023/08/06 12:05:16;;;;;;;0.70;0.30;;;14.80;99.90;;;;;;5069992;28;20520;-65
2023/08/06 12:07:44;;;;;;;0.70;0.40;;;14.90;99.90;;;;;;5069576;28;20834;-65
2023/08/06 12:10:11;;;;;;;1.33;0.40;;;15.00;99.90;;;;;;5069554;28;20417;-65
2023/08/06 12:12:38;;;;;;;1.93;0.40;;;15.00;99.90;;;;;;5069495;28;20438;-65
2023/08/06 12:15:06;;;;;;;4.67;0.50;;;15.00;99.90;;;;;;5069527;28;21319;-65
2023/08/06 12:17:32;;;;;;;0.80;0.40;;;15.10;99.90;;;;;;5069806;28;20988;-65
2023/08/06 12:19:58;;;;;;;2.13;0.50;;;15.10;99.90;;;;;;5069623;28;20417;-65
2023/08/06 12:22:23;;;;;;;0.80;0.50;;;15.10;99.90;;;;;;5051756;28;20954;-65
2023/08/06 12:24:49;;;;;;;0.70;0.50;;;15.10;99.90;;;;;;5070005;28;20187;-65
2023/08/06 12:27:16;;;;;;;0.90;0.47;;;15.10;99.90;;;;;;5070155;28;20195;-65
2023/08/06 12:29:47;;;;;;;0.90;0.50;;;15.10;99.90;;;;;;5069859;28;20549;-65
2023/08/06 12:32:14;;;;;;;0.80;0.40;;;15.10;99.90;;;;;;5069419;28;20441;-65
2023/08/06 12:34:40;;;;;;;1.40;0.47;;;15.10;99.90;;;;;;5069271;28;20513;-65
2023/08/06 12:37:07;;;;;;;1.63;0.60;;;15.00;99.90;;;;;;5069301;28;21042;-65
2023/08/06 12:39:35;;;;;;;0.80;0.50;;;15.00;99.90;;;;;;5069198;28;21043;-65
2023/08/06 12:42:05;;;;;;;0.90;0.60;;;15.00;99.90;;;;;;5068986;28;20452;-65
2023/08/06 12:44:31;;;;;;;2.70;0.93;;;15.00;99.90;;;;;;5068936;28;20443;-65
2023/08/06 12:46:57;;;;;;;1.00;0.53;;;14.90;99.90;;;;;;5068761;28;20524;-65